sensor_id;sensor_type;location;lat;lon;timestamp;P1;durP1;ratioP1;P2;durP2;ratioP2
22963;SDS011;11648;49.306;6.934;2023-06-10T00:02:02;6.83;;;5.47;;
22963;SDS011;11648;49.306;6.934;2023-06-10T00:04:30;8.40;;;5.57;;
22963;SDS011;11648;49.306;6.934;2023-06-10T00:06:57;5.90;;;5.30;;
22963;SDS011;11648;49.306;6.934;2023-06-10T00:09:24;7.37;;;5.53;;
22963;SDS011;11648;49.306;6.934;2023-06-10T00:11:51;7.03;;;5.73;;
22963;SDS011;11648;49.306;6.934;2023-06-10T00:14:17;6.93;;;6.03;;
22963;SDS011;11648;49.306;6.934;2023-06-10T00:16:44;6.20;;;5.60;;
22963;SDS011;11648;49.306;6.934;2023-06-10T00:19:11;6.83;;;5.60;;
22963;SDS011;11648;49.306;6.934;2023-06-10T00:21:40;5.90;;;5.33;;
22963;SDS011;11648;49.306;6.934;2023-06-10T00:24:07;9.57;;;5.83;;
22963;SDS011;11648;49.306;6.934;2023-06-10T00:26:39;6.13;;;5.53;;
22963;SDS011;11648;49.306;6.934;2023-06-10T00:29:07;7.93;;;5.63;;
22963;SDS011;11648;49.306;6.934;2023-06-10T00:31:36;6.27;;;5.37;;
22963;SDS011;11648;49.306;6.934;2023-06-10T00:34:08;5.93;;;5.27;;
22963;SDS011;11648;49.306;6.934;2023-06-10T00:36:35;7.20;;;5.73;;
22963;SDS011;11648;49.306;6.934;2023-06-10T00:39:02;6.60;;;5.50;;
22963;SDS011;11648;49.306;6.934;2023-06-10T00:41:31;6.27;;;5.67;;
22963;SDS011;11648;49.306;6.934;2023-06-10T00:44:00;8.70;;;5.67;;
22963;SDS011;11648;49.306;6.934;2023-06-10T00:46:27;8.27;;;5.83;;
22963;SDS011;11648;49.306;6.934;2023-06-10T00:48:54;7.30;;;5.33;;
22963;SDS011;11648;49.306;6.934;2023-06-10T00:51:21;6.27;;;5.67;;
22963;SDS011;11648;49.306;6.934;2023-06-10T00:53:49;8.33;;;5.87;;
22963;SDS011;11648;49.306;6.934;2023-06-10T00:56:16;8.23;;;5.70;;
22963;SDS011;11648;49.306;6.934;2023-06-10T00:58:43;6.90;;;5.80;;
22963;SDS011;11648;49.306;6.934;2023-06-10T01:01:10;8.10;;;5.80;;
22963;SDS011;11648;49.306;6.934;2023-06-10T01:03:38;7.17;;;5.67;;
22963;SDS011;11648;49.306;6.934;2023-06-10T01:06:09;7.63;;;5.50;;
22963;SDS011;11648;49.306;6.934;2023-06-10T01:08:49;7.77;;;5.90;;
22963;SDS011;11648;49.306;6.934;2023-06-10T01:11:28;7.83;;;5.70;;
22963;SDS011;11648;49.306;6.934;2023-06-10T01:13:59;9.03;;;5.80;;
22963;SDS011;11648;49.306;6.934;2023-06-10T01:16:27;6.50;;;5.67;;
22963;SDS011;11648;49.306;6.934;2023-06-10T01:18:55;8.13;;;5.53;;
22963;SDS011;11648;49.306;6.934;2023-06-10T01:21:23;7.90;;;6.13;;
22963;SDS011;11648;49.306;6.934;2023-06-10T01:23:51;6.90;;;5.67;;
22963;SDS011;11648;49.306;6.934;2023-06-10T01:26:20;6.17;;;5.50;;
22963;SDS011;11648;49.306;6.934;2023-06-10T01:28:57;7.60;;;5.90;;
22963;SDS011;11648;49.306;6.934;2023-06-10T01:32:06;6.87;;;5.37;;
22963;SDS011;11648;49.306;6.934;2023-06-10T01:34:50;7.80;;;5.50;;
22963;SDS011;11648;49.306;6.934;2023-06-10T01:37:18;9.13;;;5.93;;
22963;SDS011;11648;49.306;6.934;2023-06-10T01:39:48;6.67;;;5.50;;
22963;SDS011;11648;49.306;6.934;2023-06-10T01:42:16;7.67;;;5.70;;
22963;SDS011;11648;49.306;6.934;2023-06-10T01:44:44;5.73;;;5.13;;
22963;SDS011;11648;49.306;6.934;2023-06-10T01:47:10;7.57;;;6.10;;
22963;SDS011;11648;49.306;6.934;2023-06-10T01:49:37;7.13;;;5.53;;
22963;SDS011;11648;49.306;6.934;2023-06-10T01:52:06;6.63;;;5.63;;
22963;SDS011;11648;49.306;6.934;2023-06-10T01:54:33;7.57;;;5.93;;
22963;SDS011;11648;49.306;6.934;2023-06-10T01:57:01;8.57;;;5.77;;
22963;SDS011;11648;49.306;6.934;2023-06-10T01:59:28;7.03;;;5.83;;
22963;SDS011;11648;49.306;6.934;2023-06-10T02:01:55;7.63;;;5.67;;
22963;SDS011;11648;49.306;6.934;2023-06-10T02:04:22;6.50;;;5.80;;
22963;SDS011;11648;49.306;6.934;2023-06-10T02:06:48;6.37;;;5.27;;
22963;SDS011;11648;49.306;6.934;2023-06-10T02:09:16;7.17;;;5.47;;
22963;SDS011;11648;49.306;6.934;2023-06-10T02:11:45;7.17;;;5.87;;
22963;SDS011;11648;49.306;6.934;2023-06-10T02:14:12;7.43;;;5.50;;
22963;SDS011;11648;49.306;6.934;2023-06-10T02:16:39;7.27;;;5.10;;
22963;SDS011;11648;49.306;6.934;2023-06-10T02:19:06;6.20;;;5.40;;
22963;SDS011;11648;49.306;6.934;2023-06-10T02:21:34;7.33;;;5.60;;
22963;SDS011;11648;49.306;6.934;2023-06-10T02:24:01;6.60;;;5.60;;
22963;SDS011;11648;49.306;6.934;2023-06-10T02:26:28;7.33;;;5.77;;
22963;SDS011;11648;49.306;6.934;2023-06-10T02:28:58;6.57;;;5.30;;
22963;SDS011;11648;49.306;6.934;2023-06-10T02:31:26;6.27;;;5.30;;
22963;SDS011;11648;49.306;6.934;2023-06-10T02:33:55;6.57;;;5.50;;
22963;SDS011;11648;49.306;6.934;2023-06-10T02:36:23;6.87;;;5.63;;
22963;SDS011;11648;49.306;6.934;2023-06-10T02:38:50;6.93;;;5.50;;
22963;SDS011;11648;49.306;6.934;2023-06-10T02:41:17;8.83;;;5.50;;
22963;SDS011;11648;49.306;6.934;2023-06-10T02:43:45;6.30;;;5.50;;
22963;SDS011;11648;49.306;6.934;2023-06-10T02:46:12;7.27;;;5.60;;
22963;SDS011;11648;49.306;6.934;2023-06-10T02:48:40;7.87;;;5.80;;
22963;SDS011;11648;49.306;6.934;2023-06-10T02:51:18;5.47;;;4.97;;
22963;SDS011;11648;49.306;6.934;2023-06-10T02:53:47;6.47;;;5.33;;
22963;SDS011;11648;49.306;6.934;2023-06-10T02:56:16;6.73;;;5.70;;
22963;SDS011;11648;49.306;6.934;2023-06-10T02:58:43;9.67;;;5.90;;
22963;SDS011;11648;49.306;6.934;2023-06-10T03:01:12;8.73;;;5.50;;
22963;SDS011;11648;49.306;6.934;2023-06-10T03:03:56;6.10;;;5.50;;
22963;SDS011;11648;49.306;6.934;2023-06-10T03:06:23;7.27;;;6.07;;
22963;SDS011;11648;49.306;6.934;2023-06-10T03:08:53;6.80;;;6.10;;
22963;SDS011;11648;49.306;6.934;2023-06-10T03:11:20;9.27;;;6.13;;
22963;SDS011;11648;49.306;6.934;2023-06-10T03:13:48;7.77;;;6.40;;
22963;SDS011;11648;49.306;6.934;2023-06-10T03:16:17;7.27;;;6.43;;
22963;SDS011;11648;49.306;6.934;2023-06-10T03:18:45;7.80;;;6.07;;
22963;SDS011;11648;49.306;6.934;2023-06-10T03:21:12;8.30;;;6.07;;
22963;SDS011;11648;49.306;6.934;2023-06-10T03:23:39;6.73;;;6.03;;
22963;SDS011;11648;49.306;6.934;2023-06-10T03:26:06;7.07;;;6.37;;
22963;SDS011;11648;49.306;6.934;2023-06-10T03:28:36;9.27;;;6.43;;
22963;SDS011;11648;49.306;6.934;2023-06-10T03:31:03;7.13;;;6.07;;
22963;SDS011;11648;49.306;6.934;2023-06-10T03:33:31;7.87;;;6.83;;
22963;SDS011;11648;49.306;6.934;2023-06-10T03:35:58;7.50;;;6.43;;
22963;SDS011;11648;49.306;6.934;2023-06-10T03:38:26;11.13;;;6.40;;
22963;SDS011;11648;49.306;6.934;2023-06-10T03:40:53;7.20;;;6.50;;
22963;SDS011;11648;49.306;6.934;2023-06-10T03:43:20;8.77;;;6.70;;
22963;SDS011;11648;49.306;6.934;2023-06-10T03:45:49;8.30;;;6.30;;
22963;SDS011;11648;49.306;6.934;2023-06-10T03:48:16;6.70;;;6.00;;
22963;SDS011;11648;49.306;6.934;2023-06-10T03:50:47;8.63;;;6.33;;
22963;SDS011;11648;49.306;6.934;2023-06-10T03:53:17;7.33;;;6.63;;
22963;SDS011;11648;49.306;6.934;2023-06-10T03:55:44;7.17;;;6.47;;
22963;SDS011;11648;49.306;6.934;2023-06-10T03:58:13;7.13;;;6.40;;
22963;SDS011;11648;49.306;6.934;2023-06-10T04:00:42;7.03;;;6.33;;
22963;SDS011;11648;49.306;6.934;2023-06-10T04:03:09;7.30;;;6.37;;
22963;SDS011;11648;49.306;6.934;2023-06-10T04:05:45;7.13;;;6.17;;
22963;SDS011;11648;49.306;6.934;2023-06-10T04:08:11;7.60;;;6.90;;
22963;SDS011;11648;49.306;6.934;2023-06-10T04:10:38;7.00;;;6.30;;
22963;SDS011;11648;49.306;6.934;2023-06-10T04:13:05;6.70;;;6.03;;
22963;SDS011;11648;49.306;6.934;2023-06-10T04:15:38;7.30;;;6.60;;
22963;SDS011;11648;49.306;6.934;2023-06-10T04:18:09;7.30;;;6.60;;
22963;SDS011;11648;49.306;6.934;2023-06-10T04:20:36;8.43;;;6.67;;
22963;SDS011;11648;49.306;6.934;2023-06-10T04:23:03;7.20;;;6.40;;
22963;SDS011;11648;49.306;6.934;2023-06-10T04:25:30;7.33;;;6.63;;
22963;SDS011;11648;49.306;6.934;2023-06-10T04:27:57;10.23;;;6.70;;
22963;SDS011;11648;49.306;6.934;2023-06-10T04:30:24;7.33;;;6.33;;
22963;SDS011;11648;49.306;6.934;2023-06-10T04:32:51;8.23;;;6.80;;
22963;SDS011;11648;49.306;6.934;2023-06-10T04:35:19;7.33;;;6.57;;
22963;SDS011;11648;49.306;6.934;2023-06-10T04:37:47;7.27;;;6.43;;
22963;SDS011;11648;49.306;6.934;2023-06-10T04:40:14;8.30;;;6.77;;
22963;SDS011;11648;49.306;6.934;2023-06-10T04:42:43;8.80;;;6.67;;
22963;SDS011;11648;49.306;6.934;2023-06-10T04:45:10;7.73;;;6.63;;
22963;SDS011;11648;49.306;6.934;2023-06-10T04:47:38;7.60;;;6.80;;
22963;SDS011;11648;49.306;6.934;2023-06-10T04:50:06;7.80;;;7.00;;
22963;SDS011;11648;49.306;6.934;2023-06-10T04:52:33;7.80;;;7.00;;
22963;SDS011;11648;49.306;6.934;2023-06-10T04:55:00;6.67;;;6.07;;
22963;SDS011;11648;49.306;6.934;2023-06-10T04:57:27;7.83;;;6.13;;
22963;SDS011;11648;49.306;6.934;2023-06-10T04:59:53;7.30;;;6.37;;
22963;SDS011;11648;49.306;6.934;2023-06-10T05:02:20;8.77;;;6.70;;
22963;SDS011;11648;49.306;6.934;2023-06-10T05:04:47;8.53;;;6.70;;
22963;SDS011;11648;49.306;6.934;2023-06-10T05:07:14;8.77;;;6.67;;
22963;SDS011;11648;49.306;6.934;2023-06-10T05:09:41;7.90;;;6.70;;
22963;SDS011;11648;49.306;6.934;2023-06-10T05:12:08;7.00;;;6.40;;
22963;SDS011;11648;49.306;6.934;2023-06-10T05:14:35;7.27;;;6.47;;
22963;SDS011;11648;49.306;6.934;2023-06-10T05:17:02;7.80;;;6.13;;
22963;SDS011;11648;49.306;6.934;2023-06-10T05:19:29;7.07;;;6.33;;
22963;SDS011;11648;49.306;6.934;2023-06-10T05:21:56;11.23;;;6.83;;
22963;SDS011;11648;49.306;6.934;2023-06-10T05:24:22;7.67;;;6.33;;
22963;SDS011;11648;49.306;6.934;2023-06-10T05:26:49;6.80;;;6.20;;
22963;SDS011;11648;49.306;6.934;2023-06-10T05:29:16;7.20;;;6.50;;
22963;SDS011;11648;49.306;6.934;2023-06-10T05:31:43;7.47;;;6.57;;
22963;SDS011;11648;49.306;6.934;2023-06-10T05:34:10;7.57;;;6.77;;
22963;SDS011;11648;49.306;6.934;2023-06-10T05:36:37;7.93;;;6.60;;
22963;SDS011;11648;49.306;6.934;2023-06-10T05:39:04;7.20;;;6.00;;
22963;SDS011;11648;49.306;6.934;2023-06-10T05:41:31;8.83;;;6.83;;
22963;SDS011;11648;49.306;6.934;2023-06-10T05:43:58;7.33;;;6.00;;
22963;SDS011;11648;49.306;6.934;2023-06-10T05:46:24;12.30;;;6.80;;
22963;SDS011;11648;49.306;6.934;2023-06-10T05:48:51;7.87;;;6.03;;
22963;SDS011;11648;49.306;6.934;2023-06-10T05:51:18;7.73;;;5.97;;
22963;SDS011;11648;49.306;6.934;2023-06-10T05:53:45;8.60;;;5.60;;
22963;SDS011;11648;49.306;6.934;2023-06-10T05:56:13;6.43;;;5.43;;
22963;SDS011;11648;49.306;6.934;2023-06-10T05:58:40;6.30;;;5.70;;
22963;SDS011;11648;49.306;6.934;2023-06-10T06:01:07;10.27;;;5.70;;
22963;SDS011;11648;49.306;6.934;2023-06-10T06:03:34;8.47;;;5.67;;
22963;SDS011;11648;49.306;6.934;2023-06-10T06:06:02;7.27;;;5.80;;
22963;SDS011;11648;49.306;6.934;2023-06-10T06:08:29;7.10;;;5.80;;
22963;SDS011;11648;49.306;6.934;2023-06-10T06:10:56;7.27;;;5.70;;
22963;SDS011;11648;49.306;6.934;2023-06-10T06:13:23;5.67;;;5.00;;
22963;SDS011;11648;49.306;6.934;2023-06-10T06:15:50;7.17;;;5.47;;
22963;SDS011;11648;49.306;6.934;2023-06-10T06:18:17;8.50;;;5.20;;
22963;SDS011;11648;49.306;6.934;2023-06-10T06:20:45;7.33;;;5.17;;
22963;SDS011;11648;49.306;6.934;2023-06-10T06:23:12;7.57;;;5.63;;
22963;SDS011;11648;49.306;6.934;2023-06-10T06:25:38;5.73;;;5.23;;
22963;SDS011;11648;49.306;6.934;2023-06-10T06:28:06;6.10;;;5.50;;
22963;SDS011;11648;49.306;6.934;2023-06-10T06:30:33;7.00;;;6.30;;
22963;SDS011;11648;49.306;6.934;2023-06-10T06:33:01;5.90;;;5.30;;
22963;SDS011;11648;49.306;6.934;2023-06-10T06:35:30;6.73;;;5.13;;
22963;SDS011;11648;49.306;6.934;2023-06-10T06:38:00;5.40;;;4.90;;
22963;SDS011;11648;49.306;6.934;2023-06-10T06:40:28;7.80;;;5.17;;
22963;SDS011;11648;49.306;6.934;2023-06-10T06:42:55;6.67;;;5.67;;
22963;SDS011;11648;49.306;6.934;2023-06-10T06:45:40;5.87;;;4.97;;
22963;SDS011;11648;49.306;6.934;2023-06-10T06:48:07;6.93;;;5.30;;
22963;SDS011;11648;49.306;6.934;2023-06-10T06:50:34;8.80;;;5.10;;
22963;SDS011;11648;49.306;6.934;2023-06-10T06:53:01;6.10;;;5.43;;
22963;SDS011;11648;49.306;6.934;2023-06-10T06:55:27;5.13;;;4.63;;
22963;SDS011;11648;49.306;6.934;2023-06-10T06:57:54;6.57;;;5.17;;
22963;SDS011;11648;49.306;6.934;2023-06-10T07:00:22;5.87;;;4.73;;
22963;SDS011;11648;49.306;6.934;2023-06-10T07:02:48;6.57;;;4.73;;
22963;SDS011;11648;49.306;6.934;2023-06-10T07:05:15;5.47;;;4.90;;
22963;SDS011;11648;49.306;6.934;2023-06-10T07:07:43;6.80;;;5.00;;
22963;SDS011;11648;49.306;6.934;2023-06-10T07:10:09;5.20;;;4.70;;
22963;SDS011;11648;49.306;6.934;2023-06-10T07:12:36;5.53;;;4.47;;
22963;SDS011;11648;49.306;6.934;2023-06-10T07:15:03;5.33;;;4.83;;
22963;SDS011;11648;49.306;6.934;2023-06-10T07:17:33;4.83;;;4.20;;
22963;SDS011;11648;49.306;6.934;2023-06-10T07:20:01;7.20;;;4.73;;
22963;SDS011;11648;49.306;6.934;2023-06-10T07:22:28;6.60;;;5.10;;
22963;SDS011;11648;49.306;6.934;2023-06-10T07:24:55;7.40;;;5.40;;
22963;SDS011;11648;49.306;6.934;2023-06-10T07:27:22;5.20;;;4.67;;
22963;SDS011;11648;49.306;6.934;2023-06-10T07:29:49;6.50;;;4.80;;
22963;SDS011;11648;49.306;6.934;2023-06-10T07:32:15;5.10;;;4.50;;
22963;SDS011;11648;49.306;6.934;2023-06-10T07:34:44;5.03;;;4.40;;
22963;SDS011;11648;49.306;6.934;2023-06-10T07:37:11;4.53;;;4.03;;
22963;SDS011;11648;49.306;6.934;2023-06-10T07:39:38;4.70;;;4.00;;
22963;SDS011;11648;49.306;6.934;2023-06-10T07:42:05;5.20;;;3.90;;
22963;SDS011;11648;49.306;6.934;2023-06-10T07:44:32;4.63;;;4.13;;
22963;SDS011;11648;49.306;6.934;2023-06-10T07:46:59;4.90;;;4.10;;
22963;SDS011;11648;49.306;6.934;2023-06-10T07:49:26;4.93;;;4.40;;
22963;SDS011;11648;49.306;6.934;2023-06-10T07:51:53;4.90;;;4.10;;
22963;SDS011;11648;49.306;6.934;2023-06-10T07:54:21;5.55;;;3.97;;
22963;SDS011;11648;49.306;6.934;2023-06-10T07:56:48;6.40;;;4.40;;
22963;SDS011;11648;49.306;6.934;2023-06-10T07:59:15;7.20;;;4.38;;
22963;SDS011;11648;49.306;6.934;2023-06-10T08:01:42;7.38;;;4.50;;
22963;SDS011;11648;49.306;6.934;2023-06-10T08:04:09;7.35;;;4.00;;
22963;SDS011;11648;49.306;6.934;2023-06-10T08:06:36;4.95;;;4.45;;
22963;SDS011;11648;49.306;6.934;2023-06-10T08:09:03;4.63;;;3.97;;
22963;SDS011;11648;49.306;6.934;2023-06-10T08:11:30;6.00;;;4.18;;
22963;SDS011;11648;49.306;6.934;2023-06-10T08:13:57;5.80;;;4.32;;
22963;SDS011;11648;49.306;6.934;2023-06-10T08:16:24;4.95;;;4.40;;
22963;SDS011;11648;49.306;6.934;2023-06-10T08:18:51;5.03;;;4.22;;
22963;SDS011;11648;49.306;6.934;2023-06-10T08:21:21;5.45;;;4.30;;
22963;SDS011;11648;49.306;6.934;2023-06-10T08:23:48;4.78;;;4.20;;
22963;SDS011;11648;49.306;6.934;2023-06-10T08:26:19;6.18;;;4.40;;
22963;SDS011;11648;49.306;6.934;2023-06-10T08:28:46;5.15;;;4.05;;
22963;SDS011;11648;49.306;6.934;2023-06-10T08:31:13;5.05;;;4.05;;
22963;SDS011;11648;49.306;6.934;2023-06-10T08:33:41;4.85;;;4.28;;
22963;SDS011;11648;49.306;6.934;2023-06-10T08:36:48;5.50;;;4.20;;
22963;SDS011;11648;49.306;6.934;2023-06-10T08:39:19;5.05;;;4.55;;
22963;SDS011;11648;49.306;6.934;2023-06-10T08:44:41;5.57;;;4.70;;
22963;SDS011;11648;49.306;6.934;2023-06-10T08:47:13;6.93;;;4.40;;
22963;SDS011;11648;49.306;6.934;2023-06-10T08:49:43;5.28;;;4.55;;
22963;SDS011;11648;49.306;6.934;2023-06-10T08:52:15;6.90;;;4.72;;
22963;SDS011;11648;49.306;6.934;2023-06-10T08:54:47;6.85;;;4.68;;
22963;SDS011;11648;49.306;6.934;2023-06-10T08:57:18;5.22;;;4.70;;
22963;SDS011;11648;49.306;6.934;2023-06-10T08:59:48;5.35;;;4.78;;
22963;SDS011;11648;49.306;6.934;2023-06-10T09:02:15;5.97;;;4.43;;
22963;SDS011;11648;49.306;6.934;2023-06-10T09:04:46;7.30;;;4.57;;
22963;SDS011;11648;49.306;6.934;2023-06-10T09:07:15;5.55;;;5.05;;
22963;SDS011;11648;49.306;6.934;2023-06-10T09:09:43;4.97;;;4.18;;
22963;SDS011;11648;49.306;6.934;2023-06-10T09:12:12;5.30;;;4.78;;
22963;SDS011;11648;49.306;6.934;2023-06-10T09:14:41;4.78;;;4.38;;
22963;SDS011;11648;49.306;6.934;2023-06-10T09:17:08;5.00;;;4.50;;
22963;SDS011;11648;49.306;6.934;2023-06-10T09:19:35;5.40;;;4.38;;
22963;SDS011;11648;49.306;6.934;2023-06-10T09:22:04;6.50;;;4.65;;
22963;SDS011;11648;49.306;6.934;2023-06-10T09:24:32;5.75;;;4.43;;
22963;SDS011;11648;49.306;6.934;2023-06-10T09:27:06;4.93;;;4.50;;
22963;SDS011;11648;49.306;6.934;2023-06-10T09:32:14;4.97;;;4.20;;
22963;SDS011;11648;49.306;6.934;2023-06-10T09:34:47;6.30;;;4.57;;
22963;SDS011;11648;49.306;6.934;2023-06-10T09:37:23;5.68;;;4.53;;
22963;SDS011;11648;49.306;6.934;2023-06-10T09:40:06;6.05;;;4.30;;
22963;SDS011;11648;49.306;6.934;2023-06-10T09:42:39;5.18;;;4.63;;
22963;SDS011;11648;49.306;6.934;2023-06-10T09:45:06;6.57;;;4.95;;
22963;SDS011;11648;49.306;6.934;2023-06-10T09:47:34;8.45;;;4.88;;
22963;SDS011;11648;49.306;6.934;2023-06-10T09:50:00;5.38;;;4.70;;
22963;SDS011;11648;49.306;6.934;2023-06-10T09:52:29;5.18;;;4.50;;
22963;SDS011;11648;49.306;6.934;2023-06-10T09:55:00;5.25;;;4.75;;
22963;SDS011;11648;49.306;6.934;2023-06-10T09:57:33;5.97;;;4.88;;
22963;SDS011;11648;49.306;6.934;2023-06-10T10:00:03;5.28;;;4.78;;
22963;SDS011;11648;49.306;6.934;2023-06-10T10:02:46;7.68;;;4.80;;
22963;SDS011;11648;49.306;6.934;2023-06-10T10:05:21;5.18;;;4.50;;
22963;SDS011;11648;49.306;6.934;2023-06-10T10:07:49;5.28;;;4.53;;
22963;SDS011;11648;49.306;6.934;2023-06-10T10:10:17;5.47;;;4.10;;
22963;SDS011;11648;49.306;6.934;2023-06-10T10:12:47;6.43;;;3.85;;
22963;SDS011;11648;49.306;6.934;2023-06-10T10:15:16;4.10;;;3.70;;
22963;SDS011;11648;49.306;6.934;2023-06-10T10:17:55;4.85;;;3.53;;
22963;SDS011;11648;49.306;6.934;2023-06-10T10:20:31;5.53;;;4.30;;
22963;SDS011;11648;49.306;6.934;2023-06-10T10:23:02;4.40;;;4.00;;
22963;SDS011;11648;49.306;6.934;2023-06-10T10:25:32;5.20;;;3.70;;
22963;SDS011;11648;49.306;6.934;2023-06-10T10:28:08;3.85;;;3.53;;
22963;SDS011;11648;49.306;6.934;2023-06-10T10:30:41;4.90;;;3.50;;
22963;SDS011;11648;49.306;6.934;2023-06-10T10:33:16;3.80;;;3.40;;
22963;SDS011;11648;49.306;6.934;2023-06-10T10:35:46;3.78;;;3.47;;
22963;SDS011;11648;49.306;6.934;2023-06-10T10:38:14;4.60;;;3.60;;
22963;SDS011;11648;49.306;6.934;2023-06-10T10:40:41;4.97;;;3.33;;
22963;SDS011;11648;49.306;6.934;2023-06-10T10:43:09;4.05;;;3.65;;
22963;SDS011;11648;49.306;6.934;2023-06-10T10:45:37;4.93;;;3.15;;
22963;SDS011;11648;49.306;6.934;2023-06-10T10:48:10;4.80;;;3.42;;
22963;SDS011;11648;49.306;6.934;2023-06-10T10:50:39;5.70;;;3.63;;
22963;SDS011;11648;49.306;6.934;2023-06-10T10:53:07;5.10;;;3.40;;
22963;SDS011;11648;49.306;6.934;2023-06-10T10:55:34;4.13;;;3.72;;
22963;SDS011;11648;49.306;6.934;2023-06-10T10:58:07;4.35;;;3.08;;
22963;SDS011;11648;49.306;6.934;2023-06-10T11:08:05;6.05;;;3.55;;
22963;SDS011;11648;49.306;6.934;2023-06-10T11:10:36;4.18;;;3.60;;
22963;SDS011;11648;49.306;6.934;2023-06-10T11:13:15;4.10;;;3.40;;
22963;SDS011;11648;49.306;6.934;2023-06-10T11:15:45;5.07;;;3.60;;
22963;SDS011;11648;49.306;6.934;2023-06-10T11:31:21;4.18;;;3.78;;
22963;SDS011;11648;49.306;6.934;2023-06-10T11:33:54;4.22;;;3.72;;
22963;SDS011;11648;49.306;6.934;2023-06-10T11:36:29;4.55;;;3.30;;
22963;SDS011;11648;49.306;6.934;2023-06-10T11:38:58;5.65;;;3.45;;
22963;SDS011;11648;49.306;6.934;2023-06-10T11:41:27;3.95;;;3.55;;
22963;SDS011;11648;49.306;6.934;2023-06-10T11:43:56;4.22;;;3.80;;
22963;SDS011;11648;49.306;6.934;2023-06-10T11:46:27;3.97;;;3.53;;
22963;SDS011;11648;49.306;6.934;2023-06-10T11:48:55;4.47;;;3.95;;
22963;SDS011;11648;49.306;6.934;2023-06-10T11:51:27;5.40;;;3.88;;
22963;SDS011;11648;49.306;6.934;2023-06-10T11:53:55;5.07;;;4.18;;
22963;SDS011;11648;49.306;6.934;2023-06-10T11:56:23;4.45;;;3.55;;
22963;SDS011;11648;49.306;6.934;2023-06-10T12:01:21;4.18;;;3.75;;
22963;SDS011;11648;49.306;6.934;2023-06-10T12:09:05;4.63;;;4.03;;
22963;SDS011;11648;49.306;6.934;2023-06-10T12:11:49;3.75;;;3.45;;
22963;SDS011;11648;49.306;6.934;2023-06-10T12:19:58;4.38;;;3.95;;
22963;SDS011;11648;49.306;6.934;2023-06-10T12:22:26;7.85;;;4.20;;
22963;SDS011;11648;49.306;6.934;2023-06-10T12:24:57;4.80;;;4.30;;
22963;SDS011;11648;49.306;6.934;2023-06-10T12:27:29;5.20;;;4.22;;
22963;SDS011;11648;49.306;6.934;2023-06-10T12:29:58;5.47;;;4.03;;
22963;SDS011;11648;49.306;6.934;2023-06-10T12:32:38;5.05;;;3.95;;
22963;SDS011;11648;49.306;6.934;2023-06-10T12:35:07;5.75;;;4.22;;
22963;SDS011;11648;49.306;6.934;2023-06-10T12:37:36;4.97;;;4.38;;
22963;SDS011;11648;49.306;6.934;2023-06-10T12:40:08;5.13;;;4.45;;
22963;SDS011;11648;49.306;6.934;2023-06-10T12:42:36;4.78;;;4.03;;
22963;SDS011;11648;49.306;6.934;2023-06-10T12:45:04;4.75;;;4.10;;
22963;SDS011;11648;49.306;6.934;2023-06-10T12:47:36;5.35;;;4.25;;
22963;SDS011;11648;49.306;6.934;2023-06-10T12:50:08;6.30;;;4.18;;
22963;SDS011;11648;49.306;6.934;2023-06-10T12:52:35;5.53;;;4.00;;
22963;SDS011;11648;49.306;6.934;2023-06-10T12:55:03;6.00;;;4.18;;
22963;SDS011;11648;49.306;6.934;2023-06-10T12:57:31;5.32;;;3.92;;
22963;SDS011;11648;49.306;6.934;2023-06-10T12:59:58;5.10;;;4.10;;
22963;SDS011;11648;49.306;6.934;2023-06-10T13:02:32;10.82;;;3.85;;
22963;SDS011;11648;49.306;6.934;2023-06-10T13:04:59;5.20;;;4.05;;
22963;SDS011;11648;49.306;6.934;2023-06-10T13:07:25;5.95;;;4.50;;
22963;SDS011;11648;49.306;6.934;2023-06-10T13:09:53;5.07;;;4.28;;
22963;SDS011;11648;49.306;6.934;2023-06-10T13:12:19;5.03;;;3.88;;
22963;SDS011;11648;49.306;6.934;2023-06-10T13:15:03;4.90;;;4.38;;
22963;SDS011;11648;49.306;6.934;2023-06-10T13:17:31;7.63;;;4.00;;
22963;SDS011;11648;49.306;6.934;2023-06-10T13:19:58;5.63;;;4.20;;
22963;SDS011;11648;49.306;6.934;2023-06-10T13:22:25;5.40;;;4.47;;
22963;SDS011;11648;49.306;6.934;2023-06-10T13:24:53;6.40;;;4.40;;
22963;SDS011;11648;49.306;6.934;2023-06-10T13:27:19;4.60;;;4.20;;
22963;SDS011;11648;49.306;6.934;2023-06-10T13:29:46;5.60;;;4.50;;
22963;SDS011;11648;49.306;6.934;2023-06-10T13:32:13;5.28;;;4.20;;
22963;SDS011;11648;49.306;6.934;2023-06-10T13:34:40;4.82;;;4.40;;
22963;SDS011;11648;49.306;6.934;2023-06-10T13:37:07;5.32;;;4.40;;
22963;SDS011;11648;49.306;6.934;2023-06-10T13:39:33;7.80;;;4.30;;
22963;SDS011;11648;49.306;6.934;2023-06-10T13:42:00;5.53;;;4.30;;
22963;SDS011;11648;49.306;6.934;2023-06-10T13:44:27;5.75;;;4.85;;
22963;SDS011;11648;49.306;6.934;2023-06-10T13:46:57;4.47;;;4.07;;
22963;SDS011;11648;49.306;6.934;2023-06-10T13:49:24;5.65;;;4.20;;
22963;SDS011;11648;49.306;6.934;2023-06-10T13:51:50;5.18;;;4.55;;
22963;SDS011;11648;49.306;6.934;2023-06-10T13:54:17;5.30;;;4.20;;
22963;SDS011;11648;49.306;6.934;2023-06-10T13:56:44;5.45;;;4.95;;
22963;SDS011;11648;49.306;6.934;2023-06-10T13:59:11;6.75;;;4.97;;
22963;SDS011;11648;49.306;6.934;2023-06-10T14:01:38;6.63;;;4.70;;
22963;SDS011;11648;49.306;6.934;2023-06-10T14:04:05;5.72;;;4.80;;
22963;SDS011;11648;49.306;6.934;2023-06-10T14:06:33;6.57;;;4.43;;
22963;SDS011;11648;49.306;6.934;2023-06-10T14:09:00;5.50;;;4.90;;
22963;SDS011;11648;49.306;6.934;2023-06-10T14:11:27;5.88;;;4.75;;
22963;SDS011;11648;49.306;6.934;2023-06-10T14:13:54;7.00;;;4.97;;
22963;SDS011;11648;49.306;6.934;2023-06-10T14:16:23;5.53;;;5.03;;
22963;SDS011;11648;49.306;6.934;2023-06-10T14:18:50;7.43;;;4.72;;
22963;SDS011;11648;49.306;6.934;2023-06-10T14:21:17;6.07;;;5.47;;
22963;SDS011;11648;49.306;6.934;2023-06-10T14:23:44;7.20;;;5.15;;
22963;SDS011;11648;49.306;6.934;2023-06-10T14:26:12;5.88;;;5.03;;
22963;SDS011;11648;49.306;6.934;2023-06-10T14:28:39;5.40;;;4.90;;
22963;SDS011;11648;49.306;6.934;2023-06-10T14:31:05;5.93;;;5.32;;
22963;SDS011;11648;49.306;6.934;2023-06-10T14:33:33;5.78;;;5.00;;
22963;SDS011;11648;49.306;6.934;2023-06-10T14:36:01;6.05;;;5.03;;
22963;SDS011;11648;49.306;6.934;2023-06-10T14:38:28;5.90;;;5.07;;
22963;SDS011;11648;49.306;6.934;2023-06-10T14:40:55;5.75;;;5.25;;
22963;SDS011;11648;49.306;6.934;2023-06-10T14:43:22;5.68;;;5.10;;
22963;SDS011;11648;49.306;6.934;2023-06-10T14:45:49;5.63;;;5.07;;
22963;SDS011;11648;49.306;6.934;2023-06-10T14:48:17;7.20;;;5.38;;
22963;SDS011;11648;49.306;6.934;2023-06-10T14:50:44;5.47;;;4.93;;
22963;SDS011;11648;49.306;6.934;2023-06-10T14:53:13;6.63;;;4.90;;
22963;SDS011;11648;49.306;6.934;2023-06-10T14:55:40;5.22;;;4.72;;
22963;SDS011;11648;49.306;6.934;2023-06-10T14:58:06;6.05;;;5.45;;
22963;SDS011;11648;49.306;6.934;2023-06-10T15:00:33;7.85;;;5.20;;
22963;SDS011;11648;49.306;6.934;2023-06-10T15:03:00;7.60;;;5.60;;
22963;SDS011;11648;49.306;6.934;2023-06-10T15:05:27;7.10;;;5.28;;
22963;SDS011;11648;49.306;6.934;2023-06-10T15:07:54;6.82;;;5.38;;
22963;SDS011;11648;49.306;6.934;2023-06-10T15:10:20;8.82;;;5.43;;
22963;SDS011;11648;49.306;6.934;2023-06-10T15:12:49;6.15;;;4.95;;
22963;SDS011;11648;49.306;6.934;2023-06-10T15:15:22;6.63;;;5.13;;
22963;SDS011;11648;49.306;6.934;2023-06-10T15:17:49;6.07;;;5.35;;
22963;SDS011;11648;49.306;6.934;2023-06-10T15:20:16;7.47;;;4.95;;
22963;SDS011;11648;49.306;6.934;2023-06-10T15:22:43;6.22;;;5.13;;
22963;SDS011;11648;49.306;6.934;2023-06-10T15:25:10;6.85;;;5.28;;
22963;SDS011;11648;49.306;6.934;2023-06-10T15:27:41;5.72;;;4.80;;
22963;SDS011;11648;49.306;6.934;2023-06-10T15:30:14;9.23;;;5.15;;
22963;SDS011;11648;49.306;6.934;2023-06-10T15:32:41;5.45;;;4.95;;
22963;SDS011;11648;49.306;6.934;2023-06-10T15:35:09;4.90;;;4.45;;
22963;SDS011;11648;49.306;6.934;2023-06-10T15:37:39;6.45;;;4.65;;